Time;durP1;ratioP1;P1;durP2;ratioP2;P2;SDS_P1;SDS_P2;PMS_P1;PMS_P2;Temp;Humidity;BMP_temperature;BMP_pressure;BME280_temperature;BME280_humidity;BME280_pressure;Samples;Min_cycle;Max_cycle;Signal;HPM_P1;HPM_P2
2022/07/27 00:00:45;;;;;;;7.47;1.57;;;16.40;99.90;;;;;;5096079;28;20040;-71
2022/07/27 00:03:10;;;;;;;10.43;1.67;;;16.40;99.90;;;;;;5095734;28;20532;-71
2022/07/27 00:05:38;;;;;;;4.90;1.30;;;16.40;99.90;;;;;;5096052;28;20102;-71
2022/07/27 00:08:05;;;;;;;6.63;1.50;;;16.40;99.90;;;;;;5096099;28;20415;-71
2022/07/27 00:10:31;;;;;;;7.10;1.80;;;16.40;99.90;;;;;;5096103;28;20101;-71
2022/07/27 00:12:57;;;;;;;7.57;1.77;;;16.30;99.90;;;;;;5096525;28;20044;-71
2022/07/27 00:15:23;;;;;;;9.30;1.50;;;16.30;99.90;;;;;;5096521;28;20036;-71
2022/07/27 00:17:48;;;;;;;6.53;1.43;;;16.30;99.90;;;;;;5096503;28;20051;-71
2022/07/27 00:20:14;;;;;;;5.67;1.60;;;16.20;99.90;;;;;;5095900;28;20047;-71
2022/07/27 00:22:40;;;;;;;5.57;1.40;;;16.10;99.90;;;;;;5095724;28;20123;-71
2022/07/27 00:25:06;;;;;;;5.60;1.60;;;16.10;99.90;;;;;;5094626;28;20130;-71
2022/07/27 00:27:32;;;;;;;6.93;1.57;;;16.10;99.90;;;;;;5094802;28;20048;-71
2022/07/27 00:29:58;;;;;;;8.07;1.53;;;16.00;99.90;;;;;;5096516;28;20529;-71
2022/07/27 00:32:23;;;;;;;5.50;1.60;;;15.90;99.90;;;;;;5095959;28;20127;-71
2022/07/27 00:34:49;;;;;;;6.13;1.40;;;15.90;99.90;;;;;;5095577;28;20503;-70
2022/07/27 00:37:15;;;;;;;8.77;2.37;;;15.80;99.90;;;;;;5095584;28;20070;-71
2022/07/27 00:39:42;;;;;;;7.47;1.40;;;15.80;99.90;;;;;;5096628;28;20047;-70
2022/07/27 00:42:08;;;;;;;9.00;1.37;;;15.80;99.90;;;;;;5095460;28;20048;-71
2022/07/27 00:44:34;;;;;;;5.87;1.50;;;15.70;99.90;;;;;;5096242;28;20614;-71
2022/07/27 00:46:59;;;;;;;9.07;1.60;;;15.70;99.90;;;;;;5095245;28;20052;-71
2022/07/27 00:49:25;;;;;;;7.47;1.60;;;15.60;99.90;;;;;;5093417;28;20131;-71
2022/07/27 00:51:52;;;;;;;6.33;1.73;;;15.60;99.90;;;;;;5095279;28;20055;-71
2022/07/27 00:54:19;;;;;;;8.27;1.87;;;15.60;99.90;;;;;;5095160;28;20051;-71
2022/07/27 00:56:46;;;;;;;9.13;2.00;;;15.50;99.90;;;;;;5095144;28;20290;-71
2022/07/27 00:59:13;;;;;;;6.10;1.60;;;15.40;99.90;;;;;;5095146;28;20044;-71
2022/07/27 01:01:39;;;;;;;6.07;1.77;;;15.40;99.90;;;;;;5095077;28;20282;-71
2022/07/27 01:04:05;;;;;;;7.37;1.60;;;15.40;99.90;;;;;;5095005;28;20282;-71
2022/07/27 01:06:32;;;;;;;6.10;2.00;;;15.40;99.90;;;;;;5128972;27;20328;-71
2022/07/27 01:11:44;;;;;;;6.60;1.80;;;15.40;99.90;;;;;;5094964;28;20353;-71
2022/07/27 01:14:12;;;;;;;5.00;1.30;;;15.30;99.90;;;;;;5095349;28;20112;-71
2022/07/27 01:16:39;;;;;;;6.27;1.60;;;15.30;99.90;;;;;;5093817;28;20282;-71
2022/07/27 01:19:05;;;;;;;3.83;1.23;;;15.30;99.90;;;;;;5094720;28;20285;-71
2022/07/27 01:21:34;;;;;;;5.83;1.43;;;15.20;99.90;;;;;;5094934;28;20274;-71
2022/07/27 01:24:01;;;;;;;8.43;2.00;;;15.10;99.90;;;;;;5094353;28;20761;-71
2022/07/27 01:26:28;;;;;;;6.23;1.63;;;15.10;99.90;;;;;;5093344;28;20290;-71
2022/07/27 01:28:57;;;;;;;5.27;1.50;;;15.10;99.90;;;;;;5094835;28;20127;-71
2022/07/27 01:31:23;;;;;;;5.17;1.60;;;15.00;99.90;;;;;;5094494;28;20319;-71
2022/07/27 01:33:49;;;;;;;6.10;1.90;;;15.00;99.90;;;;;;5093551;28;20379;-71
2022/07/27 01:36:15;;;;;;;6.77;1.53;;;15.00;99.90;;;;;;5094865;28;20486;-71
2022/07/27 01:38:41;;;;;;;6.23;1.33;;;14.90;99.90;;;;;;5094341;28;20105;-71
2022/07/27 01:41:07;;;;;;;4.53;1.43;;;14.90;99.90;;;;;;5094299;28;20093;-71
2022/07/27 01:43:33;;;;;;;6.73;1.67;;;14.90;99.90;;;;;;5076181;28;20290;-70
2022/07/27 01:45:59;;;;;;;8.23;1.70;;;14.90;99.90;;;;;;5094328;28;20048;-70
2022/07/27 01:48:25;;;;;;;4.83;1.53;;;14.80;99.90;;;;;;5093029;28;20055;-71
2022/07/27 01:50:52;;;;;;;9.07;2.23;;;14.80;99.90;;;;;;5094698;28;20052;-71
2022/07/27 01:53:19;;;;;;;5.97;1.70;;;14.70;99.90;;;;;;5093349;28;20643;-71
2022/07/27 01:55:44;;;;;;;6.77;1.77;;;14.80;99.90;;;;;;5093729;28;20309;-70
2022/07/27 01:58:11;;;;;;;6.63;2.00;;;14.80;99.90;;;;;;5094035;28;20341;-71
2022/07/27 02:00:37;;;;;;;5.40;1.50;;;14.80;99.90;;;;;;5094823;28;20345;-71
2022/07/27 02:03:04;;;;;;;6.30;1.53;;;14.60;99.90;;;;;;5093057;28;20314;-71
2022/07/27 02:05:30;;;;;;;8.53;1.97;;;14.60;99.90;;;;;;5093881;28;20746;-71
2022/07/27 02:07:56;;;;;;;7.17;2.00;;;14.60;99.90;;;;;;5093973;28;20313;-71
2022/07/27 02:10:21;;;;;;;6.73;1.67;;;14.60;99.90;;;;;;5126936;27;20286;-71
2022/07/27 02:12:47;;;;;;;5.67;1.63;;;14.60;99.90;;;;;;5093769;28;20054;-71
2022/07/27 02:15:18;;;;;;;8.03;1.90;;;14.60;99.90;;;;;;5093745;28;20044;-71
2022/07/27 02:17:44;;;;;;;6.60;1.43;;;14.60;99.90;;;;;;5093901;28;20401;-71
2022/07/27 02:20:10;;;;;;;5.30;1.43;;;14.60;99.90;;;;;;5093970;28;20300;-71
2022/07/27 02:22:36;;;;;;;10.40;2.07;;;14.60;99.90;;;;;;5093722;28;20847;-71
2022/07/27 02:25:04;;;;;;;9.27;1.90;;;14.50;99.90;;;;;;5094452;28;20320;-71
2022/07/27 02:27:30;;;;;;;7.87;1.50;;;14.50;99.90;;;;;;5093347;28;20043;-71
2022/07/27 02:29:56;;;;;;;9.87;2.00;;;14.40;99.90;;;;;;5092654;28;20364;-71
2022/07/27 02:32:22;;;;;;;7.63;2.03;;;14.50;99.90;;;;;;5093653;28;20104;-71
2022/07/27 02:34:48;;;;;;;10.00;1.60;;;14.40;99.90;;;;;;5075553;28;20294;-70
2022/07/27 02:37:14;;;;;;;6.73;1.60;;;14.40;99.90;;;;;;5092585;28;20040;-71
2022/07/27 02:39:40;;;;;;;7.30;1.70;;;14.40;99.90;;;;;;5093552;28;20044;-70
2022/07/27 02:42:05;;;;;;;6.30;1.70;;;14.30;99.90;;;;;;5094056;28;20044;-70
2022/07/27 02:44:33;;;;;;;6.57;1.50;;;14.40;99.90;;;;;;5094020;28;20465;-70
2022/07/27 02:46:59;;;;;;;6.23;1.70;;;14.40;99.90;;;;;;5093538;28;20446;-70
2022/07/27 02:49:25;;;;;;;5.30;1.50;;;14.40;99.90;;;;;;5093357;28;20286;-70
2022/07/27 02:51:51;;;;;;;5.20;1.40;;;14.50;99.90;;;;;;5093423;28;20297;-70
2022/07/27 02:54:23;;;;;;;5.00;1.60;;;14.50;99.90;;;;;;5093266;28;20032;-71
2022/07/27 02:56:53;;;;;;;3.27;1.20;;;14.60;99.90;;;;;;5093328;28;20321;-70
2022/07/27 02:59:20;;;;;;;6.90;2.27;;;14.60;99.90;;;;;;5092649;28;20346;-70
2022/07/27 03:01:46;;;;;;;7.73;1.60;;;14.60;99.90;;;;;;5093353;28;20682;-70
2022/07/27 03:04:12;;;;;;;7.43;1.70;;;14.70;99.90;;;;;;5093206;28;20278;-70
2022/07/27 03:06:38;;;;;;;8.87;2.27;;;14.70;99.90;;;;;;5091925;28;20315;-70
2022/07/27 03:09:04;;;;;;;6.53;1.50;;;14.70;99.90;;;;;;5093567;28;20101;-70
2022/07/27 03:11:30;;;;;;;6.33;1.73;;;14.70;99.90;;;;;;5092480;28;20531;-70
2022/07/27 03:13:56;;;;;;;9.00;1.40;;;14.60;99.90;;;;;;5093183;28;20040;-70
2022/07/27 03:16:21;;;;;;;4.60;1.33;;;14.60;99.90;;;;;;5093130;28;20086;-71
2022/07/27 03:18:47;;;;;;;7.70;1.67;;;14.60;99.90;;;;;;5093171;28;20072;-70
2022/07/27 03:21:13;;;;;;;7.60;1.97;;;14.60;99.90;;;;;;5093180;28;20047;-70
2022/07/27 03:23:39;;;;;;;7.60;1.80;;;14.60;99.90;;;;;;5093367;28;20040;-70
2022/07/27 03:26:05;;;;;;;6.37;1.60;;;14.60;99.90;;;;;;5091797;28;20066;-70
2022/07/27 03:28:30;;;;;;;7.70;1.97;;;14.70;99.90;;;;;;5093556;28;20109;-70
2022/07/27 03:30:56;;;;;;;5.60;1.60;;;14.70;99.90;;;;;;5093138;28;20052;-70
2022/07/27 03:33:22;;;;;;;6.57;1.90;;;14.70;99.90;;;;;;5092725;28;20383;-70
2022/07/27 03:35:48;;;;;;;6.53;1.80;;;14.70;99.90;;;;;;5091738;28;20044;-70
2022/07/27 03:38:14;;;;;;;7.40;1.60;;;14.70;99.90;;;;;;5092671;28;20044;-70
2022/07/27 03:40:40;;;;;;;8.87;2.20;;;14.70;99.90;;;;;;5096362;28;20044;-70
2022/07/27 03:43:06;;;;;;;8.30;1.90;;;14.70;99.90;;;;;;5096652;28;20195;-70
2022/07/27 03:45:33;;;;;;;9.93;2.20;;;14.80;99.90;;;;;;5095588;28;20286;-70
2022/07/27 03:47:59;;;;;;;6.93;1.73;;;14.80;99.90;;;;;;5096843;28;20308;-70
2022/07/27 03:50:25;;;;;;;4.43;1.53;;;14.80;99.90;;;;;;5097014;28;20282;-70
2022/07/27 03:52:51;;;;;;;7.03;1.70;;;14.80;99.90;;;;;;5096403;28;20048;-70
2022/07/27 03:55:20;;;;;;;6.80;1.90;;;14.80;99.90;;;;;;5096678;28;20278;-70
2022/07/27 03:57:46;;;;;;;7.43;1.60;;;14.80;99.90;;;;;;5096371;28;20282;-70
2022/07/27 04:00:13;;;;;;;6.00;1.60;;;14.80;99.90;;;;;;5096865;28;20296;-70
2022/07/27 04:02:39;;;;;;;9.93;2.00;;;14.90;99.90;;;;;;5096265;28;20047;-70
2022/07/27 04:05:06;;;;;;;8.23;1.90;;;14.90;99.90;;;;;;5078368;28;20286;-70
2022/07/27 04:07:32;;;;;;;7.67;1.93;;;14.90;99.90;;;;;;5096061;28;20318;-70
2022/07/27 04:09:58;;;;;;;6.20;1.70;;;14.90;99.90;;;;;;5095430;28;20686;-70
2022/07/27 04:12:23;;;;;;;6.63;1.80;;;14.90;99.90;;;;;;5096159;28;20126;-70
2022/07/27 04:14:49;;;;;;;10.33;2.33;;;15.00;99.90;;;;;;5096028;28;20048;-70
2022/07/27 04:17:15;;;;;;;6.43;2.00;;;15.00;99.90;;;;;;5096049;28;20043;-70
2022/07/27 04:19:40;;;;;;;5.53;1.57;;;15.00;99.90;;;;;;5095974;28;20488;-70
2022/07/27 04:22:06;;;;;;;9.30;2.00;;;15.00;99.90;;;;;;5096471;28;20074;-70
2022/07/27 04:24:32;;;;;;;5.50;1.57;;;15.00;99.90;;;;;;5095923;28;20083;-70
2022/07/27 04:26:58;;;;;;;6.83;1.40;;;15.00;99.90;;;;;;5095960;28;20312;-70
2022/07/27 04:29:24;;;;;;;7.10;1.57;;;15.10;99.90;;;;;;5095806;28;20146;-70
2022/07/27 04:31:49;;;;;;;8.20;2.13;;;15.10;99.90;;;;;;5095731;28;20044;-70
2022/07/27 04:34:15;;;;;;;6.90;1.70;;;15.10;99.90;;;;;;5095899;28;20349;-70
2022/07/27 04:36:41;;;;;;;7.33;1.80;;;15.10;99.90;;;;;;5095687;28;20474;-70
2022/07/27 04:39:07;;;;;;;8.93;1.80;;;15.10;99.90;;;;;;5095396;28;20052;-70
2022/07/27 04:41:32;;;;;;;9.00;2.00;;;15.10;99.90;;;;;;5095224;28;20044;-70
2022/07/27 04:43:59;;;;;;;7.33;2.07;;;15.20;99.90;;;;;;5095550;28;20036;-70
2022/07/27 04:46:26;;;;;;;12.70;2.57;;;15.20;99.90;;;;;;5095993;28;20079;-70
2022/07/27 04:48:52;;;;;;;10.73;2.37;;;15.20;99.90;;;;;;5094916;28;20297;-70
2022/07/27 04:51:18;;;;;;;11.03;2.47;;;15.30;99.90;;;;;;5094782;28;20278;-70
2022/07/27 04:53:44;;;;;;;7.37;2.07;;;15.30;99.90;;;;;;5095246;28;20066;-70
2022/07/27 04:56:09;;;;;;;9.63;1.90;;;15.30;99.90;;;;;;5094118;28;20048;-70
2022/07/27 04:58:36;;;;;;;7.80;1.80;;;15.40;99.90;;;;;;5095475;28;20461;-70
2022/07/27 05:01:02;;;;;;;8.37;2.40;;;15.40;99.90;;;;;;5095180;28;20081;-70
2022/07/27 05:03:28;;;;;;;7.93;1.67;;;15.40;99.90;;;;;;5077003;28;20356;-70
2022/07/27 05:05:54;;;;;;;9.00;2.13;;;15.40;99.90;;;;;;5094039;28;20290;-70
2022/07/27 05:08:19;;;;;;;7.77;2.50;;;15.50;99.90;;;;;;5094196;28;20286;-70
2022/07/27 05:10:46;;;;;;;8.33;1.90;;;15.50;99.90;;;;;;5094996;28;20105;-70
2022/07/27 05:13:12;;;;;;;7.97;2.33;;;15.50;99.90;;;;;;5094808;28;20490;-70
2022/07/27 05:15:38;;;;;;;7.97;2.50;;;15.50;99.90;;;;;;5095400;28;20595;-70
2022/07/27 05:18:04;;;;;;;6.97;1.60;;;15.50;99.90;;;;;;5094824;28;20274;-70
2022/07/27 05:20:30;;;;;;;12.07;2.03;;;15.50;99.90;;;;;;5094744;28;20822;-70
2022/07/27 05:22:55;;;;;;;11.00;2.10;;;15.60;99.90;;;;;;5094699;28;20522;-70
2022/07/27 05:25:24;;;;;;;9.40;2.20;;;15.60;99.90;;;;;;5094487;28;20087;-70
2022/07/27 05:27:50;;;;;;;10.33;2.37;;;15.70;99.90;;;;;;5094640;28;20185;-70
2022/07/27 05:30:16;;;;;;;6.20;2.00;;;15.70;99.90;;;;;;5094658;28;20314;-70
2022/07/27 05:32:42;;;;;;;6.90;2.00;;;15.70;99.90;;;;;;5094466;28;20371;-70
2022/07/27 05:35:08;;;;;;;7.67;2.07;;;15.90;99.90;;;;;;5094535;28;20487;-70
2022/07/27 05:37:34;;;;;;;9.07;2.27;;;15.90;99.90;;;;;;5094979;28;20048;-72
2022/07/27 05:39:59;;;;;;;12.43;2.20;;;16.00;99.90;;;;;;5094444;28;20738;-70
2022/07/27 05:42:25;;;;;;;9.87;2.40;;;16.00;99.90;;;;;;5094947;28;20464;-70
2022/07/27 05:44:54;;;;;;;6.73;1.90;;;16.10;99.90;;;;;;5094593;28;20055;-71
2022/07/27 05:47:20;;;;;;;7.77;2.20;;;16.10;99.90;;;;;;5093951;28;20449;-70
2022/07/27 05:49:46;;;;;;;8.17;2.03;;;16.20;99.90;;;;;;5094272;28;20127;-70
2022/07/27 05:52:11;;;;;;;5.53;1.70;;;16.30;99.90;;;;;;5093263;28;20044;-70
2022/07/27 05:54:37;;;;;;;7.47;2.20;;;16.30;99.90;;;;;;5092864;28;20036;-71
2022/07/27 05:57:03;;;;;;;7.60;2.33;;;16.40;99.90;;;;;;5094401;28;20070;-70
2022/07/27 05:59:30;;;;;;;8.60;2.13;;;16.40;99.90;;;;;;5094122;28;20491;-70
2022/07/27 06:01:57;;;;;;;7.70;2.43;;;16.50;99.90;;;;;;5094059;28;20113;-70
2022/07/27 06:04:23;;;;;;;9.67;2.03;;;16.60;99.90;;;;;;5094014;28;20079;-70
2022/07/27 06:09:33;;;;;;;11.63;2.23;;;17.00;99.90;;;;;;5093273;28;20052;-71
2022/07/27 06:11:59;;;;;;;8.00;2.10;;;17.20;99.90;;;;;;5094459;28;20282;-71
2022/07/27 06:14:25;;;;;;;8.53;1.70;;;17.40;99.90;;;;;;5092536;28;20047;-71
2022/07/27 06:16:50;;;;;;;6.97;1.67;;;17.80;99.90;;;;;;5093795;28;20056;-71
2022/07/27 06:19:16;;;;;;;8.20;1.90;;;18.50;99.90;;;;;;5092850;28;20052;-71
2022/07/27 06:21:42;;;;;;;8.07;1.93;;;19.20;99.90;;;;;;5093463;28;20407;-70
2022/07/27 06:24:07;;;;;;;7.67;2.30;;;20.50;99.90;;;;;;5093776;28;20129;-71
2022/07/27 06:26:33;;;;;;;11.77;2.43;;;22.00;99.90;;;;;;5092236;28;20407;-71
2022/07/27 06:29:00;;;;;;;7.40;1.80;;;23.60;99.90;;;;;;5094168;28;20040;-71
2022/07/27 06:31:27;;;;;;;6.60;1.90;;;24.90;99.60;;;;;;5093871;28;20541;-71
2022/07/27 06:33:53;;;;;;;8.00;1.80;;;25.80;90.80;;;;;;5093506;28;20066;-71
2022/07/27 06:36:20;;;;;;;6.17;1.80;;;;;;;;;;5093674;28;20051;-71
2022/07/27 06:38:47;;;;;;;5.77;1.80;;;;;;;;;;5093540;28;20080;-71
2022/07/27 06:41:13;;;;;;;5.50;1.70;;;;;;;;;;5092833;28;20149;-71
2022/07/27 06:43:39;;;;;;;7.73;2.10;;;;;;;;;;5092863;28;20480;-71
2022/07/27 06:46:06;;;;;;;6.87;2.10;;;;;;;;;;5093150;28;20498;-69
2022/07/27 06:48:33;;;;;;;5.77;1.50;;;;;;;;;;5093562;28;20063;-69
2022/07/27 06:50:59;;;;;;;6.67;2.30;;;;;;;;;;5093402;28;20052;-69
2022/07/27 06:53:26;;;;;;;7.23;1.93;;;;;;;;;;5093856;28;20044;-69
2022/07/27 06:55:52;;;;;;;7.07;1.80;;;;;;;;;;5093343;28;20048;-69
2022/07/27 06:58:18;;;;;;;6.72;2.30;;;;;;;;;;5092979;28;20381;-70
2022/07/27 07:00:45;;;;;;;8.10;1.83;;;;;;;;;;5093275;28;20044;-70
2022/07/27 07:03:11;;;;;;;8.57;2.17;;;;;;;;;;5093351;28;20177;-69
2022/07/27 07:05:42;;;;;;;6.43;1.80;;;;;;;;;;5092296;28;20525;-70
2022/07/27 07:08:10;;;;;;;6.85;2.33;;;;;;;;;;5093294;28;20044;-70
2022/07/27 07:10:37;;;;;;;6.10;2.33;;;;;;;;;;5093536;28;20123;-69
2022/07/27 07:13:03;;;;;;;5.53;1.85;;;;;;;;;;5091932;28;20127;-69
2022/07/27 07:15:30;;;;;;;7.15;2.40;;;;;;;;;;5097084;28;20136;-69
2022/07/27 07:17:56;;;;;;;4.85;1.75;;;;;;;;;;5097185;28;20044;-70
2022/07/27 07:20:22;;;;;;;6.28;2.10;;;;;;;;;;5097412;28;20454;-70
2022/07/27 07:22:49;;;;;;;7.07;2.00;;;;;;;;;;5097061;28;20044;-71
2022/07/27 07:25:15;;;;;;;9.05;2.20;;;;;;;;;;5097293;28;20051;-69
2022/07/27 07:27:41;;;;;;;8.00;2.10;;;;;;;;;;5097542;28;20130;-68
2022/07/27 07:30:08;;;;;;;8.10;2.08;;;;;;;;;;5097460;28;20044;-69
2022/07/27 07:32:34;;;;;;;8.38;1.65;;;;;;;;;;5096877;28;20090;-69
2022/07/27 07:35:02;;;;;;;11.30;2.00;;;;;;;;;;5096724;28;20044;-69
2022/07/27 07:37:28;;;;;;;6.03;1.65;;;;;;;;;;5097132;28;20048;-69
2022/07/27 07:39:54;;;;;;;5.63;1.83;;;;;;;;;;5095429;28;20044;-69
2022/07/27 07:42:20;;;;;;;7.57;1.80;;;;;;;;;;5096700;28;20048;-69
2022/07/27 07:44:47;;;;;;;5.03;1.80;;;;;;;;;;5096678;28;20044;-69
2022/07/27 07:47:13;;;;;;;9.35;1.90;;;;;;;;;;5096476;28;20197;-69
2022/07/27 07:49:39;;;;;;;5.35;1.77;;;;;;;;;;5095332;28;20048;-69
2022/07/27 07:52:06;;;;;;;4.18;1.60;;;;;;;;;;5097049;28;20376;-68
2022/07/27 07:54:32;;;;;;;4.95;1.70;;;;;;;;;;5096959;28;20044;-71
2022/07/27 07:56:58;;;;;;;4.22;1.85;;;25.60;44.60;;;;;;5096676;28;20051;-71
2022/07/27 07:59:24;;;;;;;5.50;1.63;;;25.40;46.10;;;;;;5096391;28;20400;-71
2022/07/27 08:01:50;;;;;;;5.35;1.40;;;25.00;46.50;;;;;;5096363;28;20044;-70
2022/07/27 08:04:15;;;;;;;5.72;1.60;;;24.50;49.70;;;;;;5096228;28;20044;-70
2022/07/27 08:06:41;;;;;;;5.77;1.70;;;23.90;51.60;;;;;;5096314;28;20126;-70
2022/07/27 08:09:07;;;;;;;9.70;2.07;;;23.00;57.00;;;;;;5096189;28;20066;-70
2022/07/27 08:11:33;;;;;;;7.57;1.70;;;22.40;66.10;;;;;;5096246;28;20051;-70
2022/07/27 08:13:59;;;;;;;4.53;1.50;;;21.90;70.80;;;;;;5096590;28;20446;-71
2022/07/27 08:16:25;;;;;;;6.70;1.70;;;21.50;75.30;;;;;;5096093;28;20044;-70
2022/07/27 08:18:50;;;;;;;8.23;1.83;;;21.10;79.60;;;;;;5096052;28;20047;-70
2022/07/27 08:21:16;;;;;;;6.67;1.90;;;20.80;88.00;;;;;;5095961;28;20098;-70
2022/07/27 08:23:42;;;;;;;5.07;1.70;;;20.60;93.30;;;;;;5095963;28;20058;-70
2022/07/27 08:26:07;;;;;;;7.27;1.73;;;20.40;95.90;;;;;;5095040;28;20054;-70
2022/07/27 08:28:33;;;;;;;7.13;1.70;;;20.30;94.30;;;;;;5094724;28;20052;-70
2022/07/27 08:30:59;;;;;;;6.37;1.70;;;20.20;98.20;;;;;;5095452;28;20040;-71
2022/07/27 08:33:24;;;;;;;7.07;1.77;;;20.10;99.10;;;;;;5094512;28;20064;-71
2022/07/27 08:35:51;;;;;;;7.00;2.63;;;20.20;99.00;;;;;;5094733;28;20060;-70
2022/07/27 08:38:17;;;;;;;6.43;1.63;;;20.20;99.90;;;;;;5096272;28;20052;-70
2022/07/27 08:40:43;;;;;;;6.50;1.67;;;20.20;99.80;;;;;;5096181;28;20066;-69
2022/07/27 08:43:09;;;;;;;7.37;1.80;;;20.30;99.70;;;;;;5095528;28;20047;-70
2022/07/27 08:45:36;;;;;;;6.07;1.60;;;20.40;98.30;;;;;;5095531;28;20093;-70
2022/07/27 08:48:02;;;;;;;6.37;1.83;;;20.40;98.70;;;;;;5095440;28;20060;-72
2022/07/27 08:50:29;;;;;;;7.33;2.00;;;20.40;98.00;;;;;;5077579;28;20472;-72
2022/07/27 08:53:05;;;;;;;10.07;2.07;;;20.40;98.20;;;;;;5095783;28;20052;-72
2022/07/27 08:55:36;;;;;;;7.43;2.20;;;20.50;97.90;;;;;;5095283;28;20056;-72
2022/07/27 08:58:03;;;;;;;7.07;1.53;;;20.40;94.20;;;;;;5095253;28;20044;-78
2022/07/27 09:00:29;;;;;;;10.43;2.00;;;20.50;93.90;;;;;;5095224;28;20048;-79
2022/07/27 09:02:55;;;;;;;7.53;1.47;;;20.60;94.00;;;;;;5094213;28;20044;-78
2022/07/27 09:05:21;;;;;;;3.37;1.40;;;20.70;92.40;;;;;;5094155;28;20434;-78
2022/07/27 09:07:47;;;;;;;9.53;1.73;;;20.60;90.40;;;;;;5095398;28;20047;-78
2022/07/27 09:10:33;;;;;;;9.33;1.80;;;20.80;91.90;;;;;;5095601;28;20047;-75
2022/07/27 09:13:14;;;;;;;10.57;1.63;;;21.10;93.20;;;;;;5095216;28;20123;-74
2022/07/27 09:15:47;;;;;;;7.27;2.40;;;21.40;92.10;;;;;;5094992;28;20484;-74
2022/07/27 09:18:19;;;;;;;9.63;2.13;;;21.50;86.70;;;;;;5095193;28;20052;-75
2022/07/27 09:20:45;;;;;;;8.17;1.70;;;21.50;84.90;;;;;;5094877;28;20078;-76
2022/07/27 09:23:24;;;;;;;5.87;1.53;;;21.40;82.60;;;;;;5095088;28;20094;-77
2022/07/27 09:26:36;;;;;;;7.50;2.40;;;21.20;81.40;;;;;;5094870;28;20127;-73
2022/07/27 09:29:05;;;;;;;7.90;1.93;;;21.10;80.50;;;;;;5084393;28;20059;-79
2022/07/27 09:31:32;;;;;;;8.23;2.00;;;21.10;83.30;;;;;;5093630;28;20123;-74
2022/07/27 09:34:00;;;;;;;11.53;1.77;;;21.00;82.20;;;;;;5095047;28;20087;-73
2022/07/27 09:36:27;;;;;;;6.17;1.60;;;21.00;84.30;;;;;;5093712;28;20080;-74
2022/07/27 09:39:02;;;;;;;9.47;1.90;;;21.00;82.90;;;;;;5094720;28;20059;-75
2022/07/27 09:41:50;;;;;;;13.70;1.90;;;21.10;81.70;;;;;;5094436;28;20087;-76
2022/07/27 09:44:16;;;;;;;8.07;1.87;;;21.10;76.80;;;;;;5094650;28;20051;-75
2022/07/27 09:46:45;;;;;;;4.40;1.50;;;21.10;78.50;;;;;;5094244;28;20044;-75
2022/07/27 09:49:33;;;;;;;6.87;1.73;;;21.10;76.30;;;;;;5093698;28;20067;-77
2022/07/27 09:52:01;;;;;;;7.27;1.63;;;21.20;77.20;;;;;;5093015;28;20039;-75
2022/07/27 09:54:40;;;;;;;7.63;1.73;;;21.40;76.20;;;;;;5093825;28;20050;-75
2022/07/27 09:57:06;;;;;;;4.27;1.13;;;21.40;75.30;;;;;;5094163;28;20091;-83
2022/07/27 09:59:32;;;;;;;7.20;1.53;;;21.30;73.70;;;;;;5094199;28;20080;-78
2022/07/27 10:01:59;;;;;;;7.60;1.60;;;21.20;72.20;;;;;;5093319;28;20379;-76
2022/07/27 10:04:25;;;;;;;6.73;1.60;;;21.30;73.20;;;;;;5094033;28;20118;-73
2022/07/27 10:06:52;;;;;;;8.13;1.90;;;21.10;71.10;;;;;;5093897;28;20056;-75
2022/07/27 10:09:18;;;;;;;4.27;1.47;;;21.20;70.60;;;;;;5093988;28;20079;-75
2022/07/27 10:11:47;;;;;;;6.57;1.97;;;21.10;71.50;;;;;;5093894;28;20059;-78
2022/07/27 10:14:13;;;;;;;5.77;1.60;;;21.20;71.70;;;;;;5094500;28;20079;-75
2022/07/27 10:16:40;;;;;;;8.43;1.50;;;21.20;69.90;;;;;;5093896;28;20082;-75
2022/07/27 10:19:16;;;;;;;8.83;1.70;;;21.20;67.60;;;;;;5093499;28;20515;-76
2022/07/27 10:21:46;;;;;;;7.37;1.90;;;21.10;66.50;;;;;;5093914;28;20047;-75
2022/07/27 10:24:35;;;;;;;6.03;1.43;;;21.00;68.70;;;;;;5094322;28;20040;-74
2022/07/27 10:27:26;;;;;;;4.77;1.60;;;21.00;68.90;;;;;;5093850;28;20524;-75
2022/07/27 10:29:54;;;;;;;9.73;1.67;;;21.00;67.70;;;;;;5092455;28;20091;-74
2022/07/27 10:32:31;;;;;;;7.27;1.67;;;20.80;68.00;;;;;;5093646;28;20036;-86
2022/07/27 10:34:57;;;;;;;6.17;1.60;;;20.80;69.10;;;;;;5094088;28;20043;-69
2022/07/27 10:37:26;;;;;;;8.83;1.83;;;20.80;68.40;;;;;;5093612;28;20047;-73
2022/07/27 10:42:37;;;;;;;8.60;2.10;;;20.80;68.30;;;;;;5094114;28;20135;-80
2022/07/27 10:45:06;;;;;;;6.23;1.40;;;20.80;67.50;;;;;;5092529;28;20052;-77
2022/07/27 10:47:51;;;;;;;4.23;1.40;;;20.70;65.60;;;;;;5091975;28;20056;-69
2022/07/27 10:50:18;;;;;;;8.25;1.63;;;20.80;64.50;;;;;;5098592;28;20058;-71
2022/07/27 10:52:48;;;;;;;7.53;1.30;;;20.90;65.90;;;;;;5098252;28;20048;-71
2022/07/27 10:55:29;;;;;;;6.67;1.60;;;21.10;64.50;;;;;;5097583;28;20121;-72
2022/07/27 10:58:20;;;;;;;6.43;1.33;;;21.30;62.60;;;;;;5097611;28;20055;-71
2022/07/27 11:00:49;;;;;;;4.67;1.30;;;21.40;60.80;;;;;;5097734;28;20098;-71
2022/07/27 11:03:32;;;;;;;5.50;1.20;;;21.40;62.00;;;;;;5098287;28;20457;-75
2022/07/27 11:06:10;;;;;;;4.67;1.30;;;21.50;59.50;;;;;;5096246;28;20040;-71
2022/07/27 11:08:43;;;;;;;4.00;1.23;;;21.50;62.00;;;;;;5097405;28;20046;-72
2022/07/27 11:11:12;;;;;;;5.80;1.43;;;21.60;61.50;;;;;;5097706;28;20445;-74
2022/07/27 11:13:38;;;;;;;7.13;1.80;;;21.40;61.10;;;;;;5097676;28;20040;-68
2022/07/27 11:16:09;;;;;;;6.50;1.37;;;21.40;61.60;;;;;;5097224;28;20051;-70
2022/07/27 11:18:40;;;;;;;4.10;1.33;;;21.50;62.00;;;;;;5097745;28;20048;-76
2022/07/27 11:21:26;;;;;;;7.97;1.80;;;21.60;63.00;;;;;;5097690;28;20369;-71
2022/07/27 11:24:10;;;;;;;7.70;1.30;;;21.70;61.90;;;;;;5095880;28;20036;-74
2022/07/27 11:26:47;;;;;;;5.35;1.33;;;21.70;61.70;;;;;;5096129;28;20094;-74
2022/07/27 11:29:14;;;;;;;5.63;1.57;;;21.50;60.00;;;;;;5096264;28;20079;-71
2022/07/27 11:31:42;;;;;;;3.53;1.27;;;21.40;60.60;;;;;;5096022;28;20044;-72
2022/07/27 11:34:08;;;;;;;3.20;1.07;;;21.30;60.30;;;;;;5096064;28;20047;-71
2022/07/27 11:36:41;;;;;;;5.27;1.47;;;21.20;59.60;;;;;;5096028;28;20071;-73
2022/07/27 11:39:16;;;;;;;4.10;1.10;;;21.00;58.70;;;;;;5096206;28;20048;-73
2022/07/27 11:41:43;;;;;;;2.90;1.00;;;21.10;58.90;;;;;;5095910;28;20040;-71
2022/07/27 11:44:11;;;;;;;7.20;1.33;;;21.30;59.20;;;;;;5095852;28;20079;-72
2022/07/27 11:46:42;;;;;;;4.07;1.20;;;21.30;58.80;;;;;;5095909;28;20047;-74
2022/07/27 11:49:14;;;;;;;5.43;1.40;;;21.40;58.70;;;;;;5095740;28;20058;-76
2022/07/27 11:51:46;;;;;;;5.40;1.20;;;21.60;58.50;;;;;;5096020;28;20052;-72
2022/07/27 11:54:25;;;;;;;5.07;1.10;;;21.60;58.90;;;;;;5095338;28;20456;-72
2022/07/27 11:56:57;;;;;;;6.90;1.53;;;21.60;58.30;;;;;;5096511;28;20063;-71
2022/07/27 11:59:28;;;;;;;4.70;1.30;;;21.50;58.30;;;;;;5095008;28;20091;-72
2022/07/27 12:01:54;;;;;;;9.13;1.47;;;21.50;58.80;;;;;;5096000;28;20044;-73
2022/07/27 12:04:32;;;;;;;2.80;1.23;;;21.40;58.70;;;;;;5095603;28;20124;-72
2022/07/27 12:07:10;;;;;;;5.90;1.57;;;21.30;58.40;;;;;;5095921;28;20046;-72
2022/07/27 12:09:48;;;;;;;6.37;1.10;;;21.30;59.10;;;;;;5096101;28;20075;-72
2022/07/27 12:12:16;;;;;;;8.17;1.60;;;21.30;59.30;;;;;;5095608;28;20193;-71
2022/07/27 12:14:44;;;;;;;6.10;1.50;;;21.20;59.50;;;;;;5094768;28;20044;-73
2022/07/27 12:17:18;;;;;;;7.30;1.73;;;21.20;61.20;;;;;;5095372;28;20044;-75
2022/07/27 12:20:08;;;;;;;7.17;1.30;;;21.10;62.10;;;;;;5095440;28;20070;-71
2022/07/27 12:22:33;;;;;;;8.30;1.47;;;21.00;61.80;;;;;;5095420;28;20082;-74
2022/07/27 12:25:06;;;;;;;4.80;1.40;;;20.80;62.10;;;;;;5078209;28;20056;-68
2022/07/27 12:27:33;;;;;;;5.17;1.67;;;20.70;62.80;;;;;;5096039;28;20051;-69
2022/07/27 12:30:09;;;;;;;6.70;1.57;;;20.70;63.30;;;;;;5095823;28;20506;-73
2022/07/27 12:32:42;;;;;;;9.50;1.90;;;20.70;63.20;;;;;;5096599;28;20067;-74
2022/07/27 12:35:24;;;;;;;5.43;1.40;;;20.50;64.10;;;;;;5095665;28;20054;-73
2022/07/27 12:38:16;;;;;;;7.47;1.50;;;20.60;65.40;;;;;;5095674;28;20131;-73
2022/07/27 12:40:47;;;;;;;5.23;1.20;;;20.70;63.60;;;;;;5094635;28;20090;-73
2022/07/27 12:43:19;;;;;;;6.23;1.23;;;20.80;63.50;;;;;;5094623;28;20498;-73
2022/07/27 12:45:47;;;;;;;6.43;1.80;;;20.70;62.10;;;;;;5095752;28;20058;-73
2022/07/27 12:48:16;;;;;;;6.33;1.40;;;20.80;62.90;;;;;;5094772;28;20052;-74
2022/07/27 12:50:45;;;;;;;4.07;1.40;;;20.80;63.30;;;;;;5095345;28;20135;-73
2022/07/27 12:53:13;;;;;;;4.47;1.40;;;20.90;63.50;;;;;;5095547;28;20067;-74
2022/07/27 12:55:40;;;;;;;4.87;1.60;;;21.00;63.40;;;;;;5096045;28;20140;-74
2022/07/27 12:58:10;;;;;;;5.20;1.30;;;21.20;63.80;;;;;;5095304;28;20044;-75
2022/07/27 13:00:36;;;;;;;5.80;1.30;;;21.30;63.80;;;;;;5094789;28;20047;-75
2022/07/27 13:03:03;;;;;;;6.63;1.60;;;21.30;64.20;;;;;;5094361;28;20059;-76
2022/07/27 13:05:30;;;;;;;7.40;1.70;;;21.30;63.40;;;;;;5094400;28;20048;-75
2022/07/27 13:07:56;;;;;;;4.70;1.40;;;21.20;63.80;;;;;;5094262;28;20039;-70
2022/07/27 13:10:22;;;;;;;7.17;1.57;;;21.30;63.80;;;;;;5094293;28;20047;-72